Time;durP1;ratioP1;P1;durP2;ratioP2;P2;SDS_P1;SDS_P2;PMS_P1;PMS_P2;Temp;Humidity;BMP_temperature;BMP_pressure;BME280_temperature;BME280_humidity;BME280_pressure;Samples;Min_cycle;Max_cycle;Signal;HPM_P1;HPM_P2
2022/01/15 00:01:30;;;;;;;20.38;8.52;;;5.30;73.00;;;;;;6142023;23;20055;-94
2022/01/15 00:03:55;;;;;;;27.50;9.93;;;5.30;73.00;;;;;;6165340;23;20020;-92
2022/01/15 00:06:21;;;;;;;29.63;11.38;;;5.30;72.90;;;;;;6165458;23;20381;-94
2022/01/15 00:08:47;;;;;;;39.65;14.27;;;5.30;72.90;;;;;;6138073;23;20441;-95
2022/01/15 00:11:13;;;;;;;39.92;13.50;;;5.60;73.00;;;;;;6139030;23;20084;-92
2022/01/15 00:13:41;;;;;;;30.25;12.10;;;5.40;72.80;;;;;;6141589;23;20016;-95
2022/01/15 00:16:11;;;;;;;36.40;11.77;;;5.40;72.70;;;;;;6165675;23;20005;-95
2022/01/15 00:18:47;;;;;;;32.47;11.15;;;5.80;72.80;;;;;;6162653;23;20330;-95
2022/01/15 00:21:13;;;;;;;27.25;11.02;;;5.40;72.50;;;;;;6165254;23;20001;-94
2022/01/15 00:23:40;;;;;;;27.08;10.63;;;5.50;72.50;;;;;;6165079;23;20005;-95
2022/01/15 00:26:06;;;;;;;36.10;11.95;;;5.40;72.50;;;;;;6168338;23;20535;-95
2022/01/15 00:28:32;;;;;;;23.80;10.13;;;5.50;72.50;;;;;;6142121;23;20005;-95
2022/01/15 00:30:58;;;;;;;28.17;9.05;;;5.50;72.50;;;;;;6165655;23;20040;-94
2022/01/15 00:33:25;;;;;;;23.67;8.50;;;5.50;73.00;;;;;;6168935;23;20507;-95
2022/01/15 00:35:52;;;;;;;21.98;8.00;;;5.50;72.40;;;;;;6140685;23;20520;-94
2022/01/15 00:38:18;;;;;;;28.73;9.00;;;5.50;72.40;;;;;;6167542;23;20075;-94
2022/01/15 00:40:44;;;;;;;29.25;9.10;;;5.50;73.00;;;;;;6166294;23;20464;-93
2022/01/15 00:43:10;;;;;;;25.83;10.02;;;5.40;72.30;;;;;;6170001;23;20031;-92
2022/01/15 00:45:35;;;;;;;24.52;9.00;;;5.50;72.30;;;;;;6142951;23;20012;-93
2022/01/15 00:48:02;;;;;;;21.05;8.77;;;5.50;72.20;;;;;;6139651;23;20051;-92
2022/01/15 00:50:28;;;;;;;13.10;5.88;;;5.50;72.20;;;;;;6167433;23;20092;-92
2022/01/15 00:52:54;;;;;;;19.10;7.13;;;5.50;72.10;;;;;;6164663;23;20041;-92
2022/01/15 00:55:20;;;;;;;17.75;7.43;;;5.50;72.10;;;;;;6166652;23;20498;-93
2022/01/15 00:57:46;;;;;;;19.17;7.57;;;5.40;72.00;;;;;;6141011;23;20016;-92
2022/01/15 01:00:18;;;;;;;19.13;7.45;;;5.50;72.00;;;;;;6140342;23;20037;-93
2022/01/15 01:02:44;;;;;;;17.48;6.68;;;5.50;72.00;;;;;;6144080;23;20001;-92
2022/01/15 01:05:11;;;;;;;14.68;6.47;;;5.40;71.90;;;;;;6166851;23;20040;-93
2022/01/15 01:07:37;;;;;;;20.92;7.57;;;5.50;71.90;;;;;;6142414;23;20012;-93
2022/01/15 01:23:27;;;;;;;13.25;5.55;;;5.50;71.70;;;;;;6113955;23;20252;-94
2022/01/15 01:26:00;;;;;;;15.85;6.50;;;5.50;71.60;;;;;;6085766;23;20020;-95
2022/01/15 01:28:33;;;;;;;14.45;6.68;;;5.80;71.80;;;;;;6090546;23;20208;-95
2022/01/15 01:36:49;;;;;;;17.20;7.13;;;5.40;71.50;;;;;;6088255;23;20071;-92
2022/01/15 01:41:14;;;;;;;16.58;6.68;;;5.50;71.50;;;;;;6089071;23;20457;-95
2022/01/15 01:43:45;;;;;;;17.70;7.45;;;5.50;71.40;;;;;;6066908;23;20084;-95
2022/01/15 01:48:49;;;;;;;14.20;6.57;;;5.40;71.30;;;;;;6092526;23;20608;-95
2022/01/15 01:51:24;;;;;;;13.05;6.32;;;5.40;71.30;;;;;;6064028;23;20049;-91
2022/01/15 01:53:51;;;;;;;17.63;7.47;;;5.40;71.20;;;;;;6110677;23;20273;-94
2022/01/15 01:56:17;;;;;;;14.98;6.20;;;5.40;71.30;;;;;;6087115;23;20019;-94
2022/01/15 01:58:43;;;;;;;16.83;6.40;;;5.40;71.30;;;;;;6066341;23;20346;-92
2022/01/15 02:01:08;;;;;;;14.63;6.75;;;5.40;71.40;;;;;;6065374;23;20089;-93
2022/01/15 02:03:35;;;;;;;14.35;6.93;;;5.80;71.60;;;;;;6086300;23;20005;-92
2022/01/15 02:06:01;;;;;;;13.77;6.32;;;5.40;71.10;;;;;;6086117;23;20048;-92
2022/01/15 02:08:27;;;;;;;11.70;5.22;;;5.30;71.00;;;;;;6086015;23;20349;-93
2022/01/15 02:10:53;;;;;;;13.20;5.15;;;5.40;71.00;;;;;;6087621;23;20507;-92
2022/01/15 02:13:18;;;;;;;14.90;5.35;;;5.40;71.50;;;;;;6108866;23;20044;-93
2022/01/15 02:15:44;;;;;;;13.82;5.72;;;5.30;70.90;;;;;;6139577;23;20076;-93
2022/01/15 02:18:11;;;;;;;13.85;6.40;;;5.30;70.80;;;;;;6165767;23;20051;-93
2022/01/15 02:26:00;;;;;;;17.48;7.30;;;5.30;70.70;;;;;;6164456;23;20024;-92
2022/01/15 02:28:34;;;;;;;17.15;6.28;;;5.30;70.70;;;;;;6163747;23;20009;-92
2022/01/15 02:31:06;;;;;;;14.05;6.20;;;5.30;70.80;;;;;;6165247;23;20013;-93
2022/01/15 02:33:33;;;;;;;17.95;7.07;;;5.30;70.80;;;;;;6166942;23;20111;-92
2022/01/15 02:35:59;;;;;;;14.57;6.53;;;5.40;70.90;;;;;;6165009;23;20096;-93
2022/01/15 02:38:26;;;;;;;18.48;6.70;;;5.30;70.90;;;;;;6164196;23;20112;-91
2022/01/15 02:40:52;;;;;;;12.68;5.05;;;5.30;70.90;;;;;;6141416;23;20064;-93
2022/01/15 02:43:28;;;;;;;16.67;6.82;;;5.30;70.80;;;;;;6165558;23;20001;-93
2022/01/15 02:45:54;;;;;;;12.95;6.25;;;5.30;70.80;;;;;;6166205;23;20009;-92
2022/01/15 02:48:23;;;;;;;15.20;6.65;;;5.30;70.80;;;;;;6166904;23;20034;-92
2022/01/15 02:50:49;;;;;;;12.43;5.60;;;5.30;70.80;;;;;;6165648;23;20044;-92
2022/01/15 02:53:16;;;;;;;16.77;6.05;;;5.30;70.80;;;;;;6143263;23;20009;-93
2022/01/15 02:55:43;;;;;;;14.32;6.03;;;5.30;70.80;;;;;;6163304;23;20100;-92
2022/01/15 02:58:09;;;;;;;13.73;6.30;;;5.30;70.80;;;;;;6164968;23;20005;-92
2022/01/15 03:00:35;;;;;;;18.75;6.50;;;5.30;70.80;;;;;;6142070;23;20029;-92
2022/01/15 03:03:01;;;;;;;15.23;6.20;;;5.30;70.80;;;;;;6142461;23;20450;-92
2022/01/15 03:05:27;;;;;;;17.15;6.70;;;5.60;70.90;;;;;;6141842;23;20013;-93
2022/01/15 03:07:53;;;;;;;15.40;6.82;;;5.30;71.40;;;;;;6142686;23;20004;-92
2022/01/15 03:10:18;;;;;;;18.63;7.65;;;5.60;70.90;;;;;;6143574;23;20021;-92
2022/01/15 03:12:44;;;;;;;14.85;5.97;;;5.30;70.80;;;;;;6165545;23;20020;-93
2022/01/15 03:15:17;;;;;;;14.50;5.57;;;5.30;70.70;;;;;;6140160;23;20032;-91
2022/01/15 03:17:43;;;;;;;15.80;7.65;;;5.30;70.70;;;;;;6144353;23;20033;-92
2022/01/15 03:20:09;;;;;;;17.38;7.53;;;5.20;70.60;;;;;;6144308;23;20048;-91
2022/01/15 03:22:35;;;;;;;13.68;6.88;;;5.30;70.60;;;;;;6169343;23;20016;-93
2022/01/15 03:25:01;;;;;;;13.63;6.60;;;5.20;70.50;;;;;;6137956;23;20009;-92
2022/01/15 03:27:26;;;;;;;13.90;6.35;;;5.20;70.40;;;;;;6139800;23;20016;-92
2022/01/15 03:29:53;;;;;;;14.68;6.10;;;5.20;70.90;;;;;;6166909;23;20083;-92
2022/01/15 03:32:20;;;;;;;15.95;6.65;;;5.20;70.30;;;;;;6144961;23;20020;-92
2022/01/15 03:34:46;;;;;;;16.27;7.10;;;5.20;70.30;;;;;;6167464;23;20044;-93
2022/01/15 03:37:12;;;;;;;14.20;6.65;;;5.20;70.30;;;;;;6164571;23;20440;-92
2022/01/15 03:39:38;;;;;;;12.25;6.22;;;5.20;70.80;;;;;;6165954;23;20061;-91
2022/01/15 03:42:11;;;;;;;13.77;5.30;;;5.20;70.30;;;;;;6142634;23;20005;-93
2022/01/15 03:44:48;;;;;;;15.82;6.07;;;5.20;70.20;;;;;;6166951;23;20005;-92
2022/01/15 03:47:15;;;;;;;18.63;7.22;;;5.20;70.30;;;;;;6166393;23;20507;-92
2022/01/15 03:49:42;;;;;;;20.90;7.72;;;5.10;70.30;;;;;;6165235;23;20028;-92
2022/01/15 03:52:09;;;;;;;17.73;7.55;;;5.10;70.30;;;;;;6167482;23;20443;-92
2022/01/15 03:54:36;;;;;;;20.55;6.95;;;5.20;70.40;;;;;;6165432;23;20001;-93
2022/01/15 03:57:02;;;;;;;19.65;7.95;;;5.50;70.50;;;;;;6164951;23;20040;-93
2022/01/15 03:59:30;;;;;;;23.33;8.27;;;5.10;70.30;;;;;;6161918;23;20151;-92
2022/01/15 04:01:56;;;;;;;19.58;7.55;;;5.20;70.30;;;;;;6168141;23;20036;-93
2022/01/15 04:04:22;;;;;;;17.58;7.35;;;5.50;70.50;;;;;;6167232;23;20095;-91
2022/01/15 04:06:48;;;;;;;18.48;7.65;;;5.20;70.20;;;;;;6141833;23;20055;-93
2022/01/15 04:09:14;;;;;;;17.83;6.85;;;5.20;70.20;;;;;;6138958;23;20395;-92
2022/01/15 04:11:40;;;;;;;18.98;6.50;;;5.20;70.10;;;;;;6144276;23;20732;-92
2022/01/15 04:14:07;;;;;;;18.65;7.03;;;5.10;70.10;;;;;;6167463;23;20017;-91
2022/01/15 04:16:33;;;;;;;19.23;8.05;;;5.20;70.10;;;;;;6168545;23;20083;-92
2022/01/15 04:18:59;;;;;;;20.88;8.43;;;5.20;70.10;;;;;;6143104;23;20016;-92
2022/01/15 04:21:26;;;;;;;25.83;8.55;;;5.20;70.00;;;;;;6137720;23;20035;-92
2022/01/15 04:23:53;;;;;;;17.17;6.93;;;5.20;70.50;;;;;;6168184;23;20065;-92
2022/01/15 04:26:24;;;;;;;18.00;7.85;;;5.60;70.20;;;;;;6164122;23;20013;-91
2022/01/15 04:28:50;;;;;;;17.27;6.50;;;5.20;69.90;;;;;;6166406;23;20012;-91
2022/01/15 04:31:17;;;;;;;18.95;7.50;;;5.20;69.90;;;;;;6165398;23;20019;-92
2022/01/15 04:33:43;;;;;;;15.48;7.35;;;5.50;70.10;;;;;;6142342;23;20071;-91
2022/01/15 04:36:09;;;;;;;20.38;7.75;;;5.10;69.80;;;;;;6165046;23;20679;-92
2022/01/15 04:38:37;;;;;;;18.08;7.22;;;5.10;69.80;;;;;;6164135;23;20009;-92
2022/01/15 04:41:07;;;;;;;17.90;7.05;;;5.10;69.80;;;;;;6166144;23;20084;-92
2022/01/15 04:43:34;;;;;;;17.67;6.93;;;5.10;69.80;;;;;;6168235;23;20024;-93
2022/01/15 04:46:00;;;;;;;17.38;7.88;;;5.10;69.80;;;;;;6167638;23;20108;-93
2022/01/15 04:48:26;;;;;;;21.60;10.13;;;5.10;69.80;;;;;;6162453;23;20008;-93
2022/01/15 04:50:52;;;;;;;25.67;9.88;;;5.10;69.80;;;;;;6163531;23;20020;-92
2022/01/15 04:53:18;;;;;;;20.02;7.63;;;5.10;69.90;;;;;;6140571;23;20278;-93
2022/01/15 04:55:44;;;;;;;16.63;7.35;;;5.10;69.80;;;;;;6167109;23;20464;-93
2022/01/15 04:58:10;;;;;;;18.55;8.27;;;5.10;69.80;;;;;;6141383;23;20017;-92
2022/01/15 05:00:37;;;;;;;15.80;7.22;;;5.10;69.80;;;;;;6140781;23;20013;-92
2022/01/15 05:03:03;;;;;;;14.85;6.63;;;5.10;69.70;;;;;;6141422;23;20009;-92
2022/01/15 05:05:29;;;;;;;15.48;6.38;;;5.00;69.70;;;;;;6138473;23;20016;-92
2022/01/15 05:07:55;;;;;;;17.30;7.18;;;5.10;69.60;;;;;;6165392;23;20092;-91
2022/01/15 05:10:27;;;;;;;17.90;7.38;;;5.00;69.50;;;;;;6165266;23;20088;-92
2022/01/15 05:12:59;;;;;;;18.10;6.38;;;5.50;69.80;;;;;;6140369;23;20017;-92
2022/01/15 05:15:24;;;;;;;14.98;6.60;;;5.00;69.60;;;;;;6164428;23;20453;-92
2022/01/15 05:17:54;;;;;;;14.82;6.38;;;5.00;69.70;;;;;;6166024;23;20472;-93
2022/01/15 05:20:21;;;;;;;12.23;5.82;;;5.00;69.60;;;;;;6163420;23;20017;-92
2022/01/15 05:22:49;;;;;;;12.93;5.55;;;5.00;69.70;;;;;;6164668;23;20005;-92
2022/01/15 05:25:16;;;;;;;16.17;6.35;;;5.00;69.60;;;;;;6163300;23;20024;-91
2022/01/15 05:27:44;;;;;;;13.10;5.47;;;5.40;69.80;;;;;;6167737;23;20009;-91
2022/01/15 05:30:12;;;;;;;13.43;6.13;;;5.00;69.60;;;;;;6166228;23;20019;-92
2022/01/15 05:32:37;;;;;;;12.05;5.30;;;5.00;69.60;;;;;;6164467;23;20353;-93
2022/01/15 05:35:04;;;;;;;14.00;5.53;;;5.00;69.60;;;;;;6163921;23;20363;-92
2022/01/15 05:37:30;;;;;;;15.10;6.43;;;5.00;69.50;;;;;;6162646;23;20059;-91
2022/01/15 05:39:56;;;;;;;14.20;5.28;;;5.00;69.50;;;;;;6165477;23;20005;-91
2022/01/15 05:42:23;;;;;;;18.67;7.10;;;5.00;69.50;;;;;;6140987;23;19998;-92
2022/01/15 05:44:48;;;;;;;16.85;6.18;;;5.00;69.50;;;;;;6162852;23;20960;-92
2022/01/15 05:47:14;;;;;;;16.85;6.32;;;5.00;69.50;;;;;;6164483;23;19997;-92
2022/01/15 05:49:40;;;;;;;17.95;7.55;;;5.00;69.40;;;;;;6162197;23;20008;-91
2022/01/15 05:52:06;;;;;;;13.18;5.50;;;5.00;69.50;;;;;;6139210;23;20002;-92
2022/01/15 05:54:32;;;;;;;14.73;5.85;;;4.90;69.40;;;;;;6166511;23;20482;-92
2022/01/15 05:56:58;;;;;;;14.35;5.65;;;5.00;69.40;;;;;;6165067;23;20483;-92
2022/01/15 05:59:23;;;;;;;17.38;5.50;;;5.00;69.40;;;;;;6141897;23;20096;-93
2022/01/15 06:01:49;;;;;;;14.73;5.90;;;5.00;69.30;;;;;;6163579;23;20017;-93
2022/01/15 06:04:15;;;;;;;15.07;5.82;;;5.00;69.30;;;;;;6139797;23;20005;-92
2022/01/15 06:06:41;;;;;;;14.65;6.22;;;4.90;69.30;;;;;;6165820;23;20021;-92
2022/01/15 06:09:07;;;;;;;17.60;6.93;;;4.90;69.30;;;;;;6167088;23;20017;-92
2022/01/15 06:11:34;;;;;;;14.85;5.82;;;4.90;69.30;;;;;;6142142;23;20057;-92
2022/01/15 06:14:01;;;;;;;14.15;5.72;;;4.90;69.30;;;;;;6138569;23;20016;-92
2022/01/15 06:16:27;;;;;;;16.13;5.80;;;4.90;69.20;;;;;;6165456;23;20020;-91
2022/01/15 06:18:53;;;;;;;15.77;5.82;;;4.90;69.20;;;;;;6165871;23;20060;-91
2022/01/15 06:21:19;;;;;;;18.17;7.10;;;4.90;69.80;;;;;;6163150;23;20009;-92
2022/01/15 06:23:45;;;;;;;17.50;7.70;;;4.80;69.20;;;;;;6141085;23;20016;-93
2022/01/15 06:26:11;;;;;;;20.02;7.68;;;4.80;69.20;;;;;;6167474;23;20017;-93
2022/01/15 06:28:37;;;;;;;14.68;6.10;;;4.80;69.10;;;;;;6162868;23;20013;-93
2022/01/15 06:31:03;;;;;;;16.83;6.55;;;5.30;69.40;;;;;;6164776;23;20124;-92
2022/01/15 06:33:29;;;;;;;13.75;5.95;;;4.70;69.10;;;;;;6141150;23;20005;-90
2022/01/15 06:35:54;;;;;;;13.77;6.00;;;4.80;69.10;;;;;;6166145;23;20060;-94
2022/01/15 06:38:20;;;;;;;13.35;5.05;;;4.80;69.20;;;;;;6143007;23;20444;-93
2022/01/15 06:40:46;;;;;;;12.85;5.28;;;4.90;69.30;;;;;;6165078;23;20056;-92
2022/01/15 06:43:12;;;;;;;9.00;4.32;;;4.70;69.10;;;;;;6138968;23;20036;-92
2022/01/15 06:45:37;;;;;;;13.00;5.25;;;4.70;69.20;;;;;;6142199;23;20009;-95
2022/01/15 06:48:04;;;;;;;13.23;5.80;;;4.70;69.10;;;;;;6166259;23;20009;-92
2022/01/15 06:50:30;;;;;;;10.43;5.13;;;4.70;69.10;;;;;;6139192;23;20021;-85
2022/01/15 06:52:56;;;;;;;11.25;4.82;;;4.70;69.10;;;;;;6165676;23;20013;-93
2022/01/15 06:55:21;;;;;;;10.75;4.38;;;4.60;69.10;;;;;;6162877;23;20096;-94
2022/01/15 06:57:47;;;;;;;9.32;3.67;;;4.60;69.10;;;;;;6165369;23;20072;-92
2022/01/15 07:00:15;;;;;;;9.55;4.18;;;5.20;69.40;;;;;;6166598;23;20013;-93
2022/01/15 07:02:41;;;;;;;8.90;3.95;;;4.60;69.10;;;;;;6164754;23;20001;-91
2022/01/15 07:05:08;;;;;;;11.45;4.65;;;4.60;69.10;;;;;;6142086;23;20340;-93
2022/01/15 07:07:35;;;;;;;12.30;5.47;;;4.60;69.10;;;;;;6166142;23;20095;-92
2022/01/15 07:10:01;;;;;;;16.75;6.63;;;4.60;69.20;;;;;;6165525;23;20009;-93
2022/01/15 07:12:26;;;;;;;30.98;12.77;;;4.60;69.20;;;;;;6140123;23;20016;-93
2022/01/15 07:14:52;;;;;;;17.80;7.32;;;4.60;69.20;;;;;;6110858;23;20083;-93
2022/01/15 07:17:18;;;;;;;15.57;6.72;;;4.60;69.20;;;;;;6089425;23;20097;-93
2022/01/15 07:19:44;;;;;;;21.40;8.90;;;4.50;69.10;;;;;;6086696;23;20357;-94
2022/01/15 07:22:10;;;;;;;17.45;7.15;;;4.50;69.10;;;;;;6063829;23;20457;-90
2022/01/15 07:24:36;;;;;;;22.05;8.60;;;4.50;69.10;;;;;;6088839;23;20002;-94
2022/01/15 07:27:03;;;;;;;21.52;8.70;;;4.50;69.10;;;;;;6088732;23;20013;-95
2022/01/15 07:29:30;;;;;;;24.52;10.38;;;4.50;69.20;;;;;;6092214;23;20013;-95
2022/01/15 07:31:56;;;;;;;23.77;10.85;;;4.50;69.10;;;;;;6084374;23;20017;-96
2022/01/15 07:34:22;;;;;;;19.25;7.53;;;4.50;69.00;;;;;;6112684;23;20009;-96
2022/01/15 07:36:53;;;;;;;21.95;9.13;;;5.00;69.20;;;;;;6062704;23;20019;-95
2022/01/15 07:39:19;;;;;;;30.23;11.48;;;4.40;68.90;;;;;;6088460;23;20025;-95
2022/01/15 07:41:45;;;;;;;25.65;10.00;;;4.50;69.10;;;;;;6112044;23;20045;-95
2022/01/15 07:44:11;;;;;;;22.63;10.00;;;4.40;69.10;;;;;;6089443;23;20759;-95
2022/01/15 07:46:37;;;;;;;19.85;8.55;;;4.30;69.20;;;;;;6112783;23;20017;-94
2022/01/15 07:49:03;;;;;;;27.40;13.55;;;4.30;69.20;;;;;;6090591;23;20016;-95
2022/01/15 07:51:29;;;;;;;17.77;8.57;;;4.30;69.10;;;;;;6112948;23;20017;-96
2022/01/15 07:53:55;;;;;;;17.90;8.65;;;4.30;69.20;;;;;;6062661;23;20010;-96
2022/01/15 07:56:21;;;;;;;20.10;8.00;;;4.30;69.10;;;;;;6065272;23;20017;-93
2022/01/15 07:58:47;;;;;;;20.40;8.63;;;4.30;69.10;;;;;;6087691;23;20039;-96
2022/01/15 08:01:13;;;;;;;15.93;7.55;;;4.30;68.90;;;;;;6090520;23;20017;-96
2022/01/15 08:03:40;;;;;;;16.48;7.38;;;4.40;69.10;;;;;;6066779;23;20005;-94
2022/01/15 08:06:06;;;;;;;15.60;7.60;;;4.20;68.90;;;;;;6088285;23;20562;-93
2022/01/15 08:08:33;;;;;;;13.38;6.35;;;4.20;69.00;;;;;;6067056;23;20014;-94
2022/01/15 08:10:59;;;;;;;15.50;7.22;;;4.20;69.00;;;;;;6087609;23;20354;-96
2022/01/15 08:13:26;;;;;;;19.33;10.68;;;4.20;69.10;;;;;;6113768;23;20017;-95
2022/01/15 08:15:53;;;;;;;16.90;9.25;;;4.10;69.20;;;;;;6166982;23;20122;-93
2022/01/15 08:18:21;;;;;;;17.23;7.65;;;4.10;69.20;;;;;;6143802;23;20009;-95
2022/01/15 08:20:48;;;;;;;18.45;8.18;;;4.10;69.30;;;;;;6165040;23;20005;-95
2022/01/15 08:23:14;;;;;;;19.20;8.35;;;4.50;69.50;;;;;;6168218;23;20223;-94
2022/01/15 08:25:40;;;;;;;24.83;8.77;;;4.10;69.40;;;;;;6170286;23;20016;-95
2022/01/15 08:28:06;;;;;;;12.88;7.53;;;4.10;69.40;;;;;;6141984;23;20352;-94
2022/01/15 08:30:32;;;;;;;16.27;8.73;;;4.70;69.80;;;;;;6166760;23;20060;-94
2022/01/15 08:32:58;;;;;;;14.93;7.57;;;4.10;69.40;;;;;;6141362;23;20013;-95
2022/01/15 08:35:24;;;;;;;16.73;7.00;;;4.60;69.80;;;;;;6143001;23;20068;-94
2022/01/15 08:37:50;;;;;;;15.63;7.22;;;4.10;69.50;;;;;;6145976;23;20013;-95
2022/01/15 08:40:20;;;;;;;19.88;8.30;;;4.20;69.60;;;;;;6165414;23;20005;-95
2022/01/15 08:42:46;;;;;;;27.38;13.32;;;4.20;69.60;;;;;;6166894;23;20449;-95
2022/01/15 08:45:14;;;;;;;21.83;8.55;;;4.20;69.60;;;;;;6166889;23;20012;-94
2022/01/15 08:47:40;;;;;;;18.13;9.07;;;4.20;69.60;;;;;;6168228;23;20088;-95
2022/01/15 08:50:08;;;;;;;24.33;9.93;;;4.70;69.90;;;;;;6142727;23;20039;-95
2022/01/15 08:52:35;;;;;;;22.02;10.45;;;4.30;69.70;;;;;;6140092;23;20021;-95
2022/01/15 08:55:03;;;;;;;31.40;16.10;;;4.30;69.70;;;;;;6168428;23;20009;-95
2022/01/15 08:57:28;;;;;;;22.27;9.70;;;4.30;69.70;;;;;;6165866;23;20040;-95
2022/01/15 08:59:54;;;;;;;16.55;8.05;;;4.30;69.70;;;;;;6166320;23;20043;-95
2022/01/15 09:02:20;;;;;;;20.17;9.30;;;4.70;70.00;;;;;;6142181;23;20354;-95
2022/01/15 09:04:46;;;;;;;19.90;10.35;;;4.30;69.70;;;;;;6162784;23;20455;-95
2022/01/15 09:07:13;;;;;;;18.10;9.05;;;4.40;70.40;;;;;;6141638;23;20103;-93
2022/01/15 09:09:39;;;;;;;17.90;9.48;;;4.40;69.70;;;;;;6167285;23;20503;-96
2022/01/15 09:12:06;;;;;;;21.92;10.18;;;5.00;70.00;;;;;;6163779;23;20013;-96
2022/01/15 09:14:31;;;;;;;54.90;23.20;;;4.50;69.70;;;;;;6139258;23;20625;-93
2022/01/15 09:16:57;;;;;;;28.85;13.52;;;4.50;69.70;;;;;;6164779;23;20046;-94
2022/01/15 09:19:23;;;;;;;27.40;12.15;;;4.50;69.70;;;;;;6143828;23;20009;-94
2022/01/15 09:21:49;;;;;;;20.40;9.43;;;4.50;69.80;;;;;;6139118;23;20037;-94
2022/01/15 09:24:15;;;;;;;20.35;9.05;;;4.50;69.80;;;;;;6167923;23;20037;-94
2022/01/15 09:32:12;;;;;;;28.38;12.77;;;4.90;70.10;;;;;;6172485;23;20075;-93
2022/01/15 09:34:38;;;;;;;23.67;11.82;;;4.60;69.90;;;;;;6168401;23;20009;-90
2022/01/15 09:37:06;;;;;;;19.83;9.95;;;4.60;69.80;;;;;;6168612;23;20016;-93
2022/01/15 09:39:32;;;;;;;23.33;11.48;;;4.60;70.50;;;;;;6144253;23;20016;-92
2022/01/15 09:41:58;;;;;;;28.10;11.70;;;4.60;70.00;;;;;;6163181;23;20016;-94
2022/01/15 09:44:25;;;;;;;28.48;12.77;;;4.60;70.10;;;;;;6161574;23;20005;-94
2022/01/15 09:46:52;;;;;;;29.05;12.88;;;4.60;70.60;;;;;;6163910;23;20457;-94
2022/01/15 09:49:23;;;;;;;28.23;12.30;;;4.70;70.20;;;;;;6139387;23;20011;-84
2022/01/15 09:51:49;;;;;;;23.52;10.63;;;4.70;70.20;;;;;;6160677;23;20021;-94
2022/01/15 09:54:16;;;;;;;21.55;10.45;;;4.70;70.30;;;;;;6162337;23;20008;-93
2022/01/15 09:56:43;;;;;;;32.45;11.10;;;5.30;70.70;;;;;;6164034;23;20534;-93
2022/01/15 09:59:10;;;;;;;27.10;12.07;;;4.70;70.40;;;;;;6166137;23;20029;-94
2022/01/15 10:01:36;;;;;;;21.60;10.98;;;4.70;70.50;;;;;;6164556;23;20040;-95
2022/01/15 10:04:02;;;;;;;17.48;7.68;;;4.70;70.60;;;;;;6141272;23;19997;-95
2022/01/15 10:06:27;;;;;;;16.67;8.57;;;4.70;70.60;;;;;;6143433;23;20051;-95
2022/01/15 10:09:09;;;;;;;17.42;8.05;;;4.70;70.80;;;;;;6168769;23;20009;-95
2022/01/15 10:11:51;;;;;;;15.13;6.70;;;4.70;71.00;;;;;;6139070;23;20037;-95
2022/01/15 10:14:36;;;;;;;16.35;7.50;;;4.80;71.00;;;;;;6140361;23;20510;-95
2022/01/15 10:17:20;;;;;;;18.55;8.27;;;4.80;71.10;;;;;;6164078;23;20364;-95
2022/01/15 10:19:46;;;;;;;19.17;7.65;;;4.80;71.10;;;;;;6167972;23;20013;-94
2022/01/15 10:22:11;;;;;;;21.35;9.32;;;4.80;71.10;;;;;;6165285;23;20017;-94
2022/01/15 10:24:41;;;;;;;18.25;8.98;;;4.80;71.30;;;;;;6167977;23;20039;-95
2022/01/15 10:27:29;;;;;;;18.15;8.18;;;4.80;71.50;;;;;;6168439;23;20021;-91
2022/01/15 10:30:15;;;;;;;18.73;6.65;;;4.80;71.60;;;;;;6168114;23;20396;-94
2022/01/15 10:32:59;;;;;;;25.63;9.95;;;4.80;71.60;;;;;;6170230;23;20025;-96
2022/01/15 10:35:32;;;;;;;26.13;10.20;;;4.90;71.70;;;;;;6170558;23;20013;-96
2022/01/15 10:38:20;;;;;;;25.25;9.85;;;4.90;71.70;;;;;;6167252;23;20099;-94
2022/01/15 10:40:55;;;;;;;22.23;9.68;;;4.90;71.90;;;;;;6168332;23;20031;-93
2022/01/15 10:43:33;;;;;;;18.25;8.35;;;4.90;71.90;;;;;;6167163;23;19997;-95
2022/01/15 10:46:01;;;;;;;27.45;10.85;;;5.20;72.10;;;;;;6170542;23;20020;-95
2022/01/15 10:48:34;;;;;;;26.08;9.77;;;4.90;72.10;;;;;;6169379;23;20020;-95
2022/01/15 10:51:03;;;;;;;20.95;9.68;;;4.90;72.10;;;;;;6168773;23;20044;-93
2022/01/15 10:53:35;;;;;;;24.65;9.77;;;4.90;72.20;;;;;;6168957;23;20032;-94
2022/01/15 10:56:03;;;;;;;19.95;9.05;;;5.00;72.40;;;;;;6168188;23;20044;-93
2022/01/15 10:58:29;;;;;;;22.05;9.52;;;4.90;72.40;;;;;;6168487;23;20352;-94
2022/01/15 11:00:55;;;;;;;16.70;6.50;;;5.00;72.60;;;;;;6166082;23;20008;-94
2022/01/15 11:03:22;;;;;;;21.52;8.75;;;5.00;72.60;;;;;;6139123;23;20092;-94
2022/01/15 11:05:49;;;;;;;19.55;8.98;;;5.40;72.80;;;;;;6143362;23;20401;-94
2022/01/15 11:08:27;;;;;;;20.58;9.02;;;5.00;72.70;;;;;;6167634;23;20020;-95
2022/01/15 11:10:53;;;;;;;18.75;7.18;;;5.00;72.90;;;;;;6167487;23;20019;-94
2022/01/15 11:13:29;;;;;;;17.73;6.53;;;5.00;72.90;;;;;;6167365;23;20096;-95
2022/01/15 11:16:08;;;;;;;18.25;7.85;;;5.00;72.90;;;;;;6165856;23;20345;-94
2022/01/15 11:18:37;;;;;;;19.08;8.00;;;5.00;72.90;;;;;;6166311;23;20084;-93
2022/01/15 11:21:06;;;;;;;17.52;8.07;;;5.00;73.00;;;;;;6167139;23;20088;-93
2022/01/15 11:23:34;;;;;;;18.52;8.82;;;5.00;73.00;;;;;;6168148;23;20009;-93
2022/01/15 11:26:04;;;;;;;18.67;8.20;;;5.00;73.10;;;;;;6169464;23;20012;-94
2022/01/15 11:28:33;;;;;;;17.30;7.47;;;5.10;73.20;;;;;;6168557;23;20013;-85
2022/01/15 11:31:11;;;;;;;16.42;6.93;;;5.10;73.30;;;;;;6144025;23;20085;-94
2022/01/15 11:33:41;;;;;;;21.65;9.15;;;5.10;73.30;;;;;;6167662;23;20008;-95
2022/01/15 11:36:08;;;;;;;17.95;8.98;;;5.10;73.90;;;;;;6165571;23;20047;-94
2022/01/15 11:38:44;;;;;;;22.83;9.65;;;5.10;73.50;;;;;;6141733;23;20009;-92
2022/01/15 11:41:28;;;;;;;60.47;20.90;;;5.20;73.60;;;;;;6141264;23;20009;-94
2022/01/15 11:43:55;;;;;;;25.05;11.07;;;5.20;73.70;;;;;;6197423;23;20009;-96
2022/01/15 11:46:44;;;;;;;73.03;25.45;;;5.40;73.70;;;;;;6153809;23;20036;-94
2022/01/15 11:49:44;;;;;;;72.50;27.58;;;5.30;73.70;;;;;;6201447;23;20013;-96
2022/01/15 11:52:11;;;;;;;28.25;11.95;;;5.40;73.90;;;;;;6149422;23;20063;-93
2022/01/15 11:54:59;;;;;;;21.73;10.23;;;5.40;73.80;;;;;;6202186;23;20016;-93
2022/01/15 11:57:47;;;;;;;25.90;10.57;;;5.40;73.80;;;;;;6196197;23;20100;-94
2022/01/15 12:00:28;;;;;;;24.42;10.00;;;5.70;74.20;;;;;;6156493;23;20009;-95
2022/01/15 12:03:05;;;;;;;26.08;10.93;;;5.50;73.90;;;;;;6173617;23;20452;-95
2022/01/15 12:05:37;;;;;;;21.88;10.05;;;5.50;74.00;;;;;;6167485;23;20001;-94
2022/01/15 12:08:02;;;;;;;34.83;14.07;;;6.00;74.20;;;;;;6139922;23;20100;-93
2022/01/15 12:10:41;;;;;;;28.98;12.65;;;5.50;74.00;;;;;;6194269;23;20108;-92
2022/01/15 12:13:15;;;;;;;22.83;11.52;;;6.20;74.40;;;;;;6162758;23;20530;-95
2022/01/15 12:15:41;;;;;;;21.23;9.52;;;5.60;74.10;;;;;;6168572;23;20009;-96
2022/01/15 12:18:15;;;;;;;20.48;9.68;;;5.60;74.20;;;;;;6166852;23;20017;-95
2022/01/15 12:20:41;;;;;;;21.40;11.00;;;5.90;74.30;;;;;;6168779;23;20008;-94
2022/01/15 12:23:19;;;;;;;23.10;10.70;;;5.70;74.20;;;;;;6167876;23;20468;-95
2022/01/15 12:25:51;;;;;;;21.67;10.68;;;5.70;74.30;;;;;;6191255;23;20016;-95
2022/01/15 12:28:18;;;;;;;22.95;10.10;;;5.70;74.30;;;;;;6165845;23;20063;-95
2022/01/15 12:30:47;;;;;;;26.63;12.40;;;6.20;74.60;;;;;;6169934;23;20096;-95
2022/01/15 12:33:15;;;;;;;26.73;11.52;;;5.70;74.30;;;;;;6167081;23;20037;-94
2022/01/15 12:35:45;;;;;;;25.42;10.32;;;5.80;74.40;;;;;;6169072;23;20340;-92
2022/01/15 12:38:28;;;;;;;23.60;11.30;;;5.80;74.40;;;;;;6166792;23;20021;-94
2022/01/15 12:41:06;;;;;;;20.00;9.20;;;5.80;74.40;;;;;;6146507;23;20500;-96
2022/01/15 12:43:43;;;;;;;20.38;10.27;;;5.80;74.40;;;;;;6167958;23;20024;-96
2022/01/15 12:46:15;;;;;;;23.15;10.38;;;6.20;74.80;;;;;;6168335;23;20015;-96
2022/01/15 12:48:44;;;;;;;28.13;12.65;;;5.90;74.50;;;;;;6169708;23;20005;-93
2022/01/15 12:51:18;;;;;;;22.05;10.77;;;6.00;74.60;;;;;;6165489;23;20043;-94
2022/01/15 12:53:53;;;;;;;23.73;9.85;;;5.90;74.60;;;;;;6143547;23;20029;-96
2022/01/15 12:56:19;;;;;;;28.27;13.05;;;6.20;74.80;;;;;;6168051;23;20336;-96
2022/01/15 12:58:46;;;;;;;19.58;8.73;;;6.20;74.90;;;;;;6167159;23;20579;-96
2022/01/15 13:01:21;;;;;;;22.60;9.77;;;6.40;74.90;;;;;;6167412;23;20036;-95
2022/01/15 13:03:46;;;;;;;25.35;11.85;;;6.30;74.90;;;;;;6167832;23;20055;-96
2022/01/15 13:06:12;;;;;;;30.80;13.07;;;6.40;75.10;;;;;;6143168;23;20009;-95
2022/01/15 13:08:42;;;;;;;29.40;13.23;;;6.10;74.90;;;;;;6143468;23;20096;-96
2022/01/15 13:13:56;;;;;;;28.00;13.55;;;6.50;75.20;;;;;;6169933;23;20024;-96
2022/01/15 13:16:26;;;;;;;46.50;19.67;;;6.10;75.00;;;;;;6169557;23;20013;-96
2022/01/15 13:18:58;;;;;;;38.67;17.05;;;6.10;75.00;;;;;;6145005;23;20507;-95
2022/01/15 13:21:28;;;;;;;38.13;17.38;;;6.10;75.00;;;;;;6168725;23;20032;-96
2022/01/15 13:24:07;;;;;;;69.95;29.77;;;6.10;75.00;;;;;;6169811;23;20001;-96
2022/01/15 13:26:36;;;;;;;28.52;12.32;;;6.30;75.10;;;;;;6146073;23;20345;-96
2022/01/15 13:29:14;;;;;;;25.05;12.43;;;6.10;75.60;;;;;;6170047;23;20016;-96